createdAt,value
2023-03-07T00:01:30.603Z,3.92
2023-03-07T00:03:59.123Z,3.40
2023-03-07T00:06:27.970Z,6.10
2023-03-07T00:08:58.319Z,4.70
2023-03-07T00:11:26.063Z,2.85
2023-03-07T00:13:53.657Z,2.58
2023-03-07T00:16:23.434Z,4.10
2023-03-07T00:18:51.782Z,5.40
2023-03-07T00:21:21.953Z,4.43
2023-03-07T00:23:52.779Z,3.30
2023-03-07T00:26:22.058Z,6.90
2023-03-07T00:28:51.297Z,3.63
2023-03-07T00:31:20.323Z,3.05
2023-03-07T00:33:47.862Z,4.18
2023-03-07T00:36:21.050Z,5.15
2023-03-07T00:38:49.670Z,5.43
2023-03-07T00:41:28.025Z,6.93
2023-03-07T00:43:56.221Z,5.05
2023-03-07T00:46:25.155Z,5.80
2023-03-07T00:48:53.253Z,10.77
2023-03-07T00:51:22.396Z,5.35
2023-03-07T00:53:51.060Z,2.03
2023-03-07T00:56:23.040Z,2.47
2023-03-07T00:58:51.336Z,7.28
2023-03-07T01:01:22.060Z,7.75
2023-03-07T01:03:53.135Z,4.90
2023-03-07T01:06:25.708Z,3.10
2023-03-07T01:08:57.739Z,4.97
2023-03-07T01:11:29.078Z,4.30
2023-03-07T01:14:01.855Z,2.78
2023-03-07T01:16:33.280Z,4.45
2023-03-07T01:19:07.773Z,6.53
2023-03-07T01:21:38.066Z,5.85
2023-03-07T01:24:06.686Z,5.75
2023-03-07T01:26:35.005Z,2.03
2023-03-07T01:29:04.823Z,3.15
2023-03-07T01:31:35.831Z,1.48
2023-03-07T01:34:05.043Z,15.55
2023-03-07T01:36:36.592Z,4.25
2023-03-07T01:39:14.357Z,8.93
2023-03-07T01:41:47.158Z,4.47
2023-03-07T01:44:22.068Z,5.10
2023-03-07T01:46:55.146Z,1.05
2023-03-07T01:49:36.277Z,6.10
2023-03-07T01:52:41.410Z,6.47
2023-03-07T01:55:18.507Z,3.38
2023-03-07T01:57:49.716Z,9.63
2023-03-07T02:00:30.784Z,9.27
2023-03-07T02:03:11.568Z,5.72
2023-03-07T02:05:50.861Z,9.23
2023-03-07T02:08:21.159Z,7.43
2023-03-07T02:10:49.201Z,9.90
2023-03-07T02:13:16.854Z,4.20
2023-03-07T02:15:45.341Z,6.38
2023-03-07T02:18:16.573Z,3.80
2023-03-07T02:21:12.306Z,11.32
2023-03-07T02:23:53.860Z,5.30
2023-03-07T02:26:28.990Z,7.03
2023-03-07T02:28:57.457Z,6.70
2023-03-07T02:31:26.426Z,5.85
2023-03-07T02:33:54.070Z,9.95
2023-03-07T02:36:26.253Z,7.22
2023-03-07T02:39:21.535Z,9.00
2023-03-07T02:41:53.252Z,15.95
2023-03-07T02:46:55.115Z,17.27
2023-03-07T02:49:26.722Z,14.23
2023-03-07T02:51:57.710Z,7.57
2023-03-07T02:54:25.848Z,11.35
2023-03-07T02:56:54.775Z,13.73
2023-03-07T02:59:22.406Z,14.73
2023-03-07T03:01:50.802Z,7.70
2023-03-07T03:04:18.386Z,18.40
2023-03-07T03:06:45.703Z,9.57
2023-03-07T03:09:12.924Z,12.23
2023-03-07T03:11:40.207Z,14.35
2023-03-07T03:14:07.722Z,10.10
2023-03-07T03:16:35.059Z,13.50
2023-03-07T03:19:02.327Z,7.78
2023-03-07T03:21:29.657Z,12.10
2023-03-07T03:23:57.152Z,8.32
2023-03-07T03:26:24.916Z,12.23
2023-03-07T03:28:54.964Z,8.20
2023-03-07T03:31:22.881Z,13.43
2023-03-07T03:33:52.445Z,7.35
2023-03-07T03:36:20.307Z,14.85
2023-03-07T03:38:49.745Z,10.77
2023-03-07T03:41:17.169Z,14.10
2023-03-07T03:43:46.084Z,10.73
2023-03-07T03:46:13.690Z,11.27
2023-03-07T03:48:41.053Z,12.95
2023-03-07T03:51:10.854Z,12.90
2023-03-07T03:53:39.596Z,12.85
2023-03-07T03:56:15.861Z,14.32
2023-03-07T03:58:43.829Z,9.85
2023-03-07T04:01:12.646Z,12.77
2023-03-07T04:03:43.043Z,16.10
2023-03-07T04:06:14.211Z,15.50
2023-03-07T04:08:41.769Z,13.43
2023-03-07T04:11:09.243Z,9.13
2023-03-07T04:13:36.581Z,10.65
2023-03-07T04:16:04.535Z,14.15
2023-03-07T04:18:32.040Z,16.38
2023-03-07T04:20:59.365Z,14.07
2023-03-07T04:23:28.272Z,14.32
2023-03-07T04:25:57.437Z,12.88
2023-03-07T04:28:28.024Z,13.05
2023-03-07T04:30:56.375Z,10.32
2023-03-07T04:33:27.272Z,7.75
2023-03-07T04:35:54.545Z,7.35
2023-03-07T04:38:21.796Z,8.95
2023-03-07T04:40:49.058Z,9.07
2023-03-07T04:43:16.562Z,7.65
2023-03-07T04:45:43.858Z,5.55
2023-03-07T04:48:11.131Z,8.77
2023-03-07T04:50:38.409Z,6.65
2023-03-07T04:53:06.962Z,10.90
2023-03-07T04:55:34.384Z,10.15
2023-03-07T04:58:01.700Z,11.32
2023-03-07T05:00:29.329Z,10.77
2023-03-07T05:03:02.026Z,10.85
2023-03-07T05:05:30.393Z,13.45
2023-03-07T05:07:57.738Z,10.73
2023-03-07T05:10:25.089Z,11.27
2023-03-07T05:12:52.581Z,19.65
2023-03-07T05:15:19.837Z,12.73
2023-03-07T05:17:47.054Z,14.40
2023-03-07T05:20:14.308Z,8.57
2023-03-07T05:22:42.780Z,13.90
2023-03-07T05:25:10.387Z,12.25
2023-03-07T05:27:37.962Z,12.77
2023-03-07T05:30:06.005Z,14.20
2023-03-07T05:32:33.894Z,10.00
2023-03-07T05:35:01.981Z,11.30
2023-03-07T05:37:30.981Z,12.07
2023-03-07T05:39:59.073Z,9.32
2023-03-07T05:42:26.356Z,15.52
2023-03-07T05:44:54.182Z,9.93
2023-03-07T05:47:22.046Z,14.30
2023-03-07T05:49:49.963Z,12.38
2023-03-07T05:52:17.307Z,10.30
2023-03-07T05:54:45.003Z,12.73
2023-03-07T05:57:12.605Z,15.00
2023-03-07T05:59:41.195Z,10.63
2023-03-07T06:02:08.488Z,18.05
2023-03-07T06:04:35.759Z,15.52
2023-03-07T06:07:03.518Z,13.63
2023-03-07T06:09:30.981Z,13.63
2023-03-07T06:11:59.917Z,15.07
2023-03-07T06:14:27.155Z,12.65
2023-03-07T06:16:54.408Z,13.38
2023-03-07T06:19:22.024Z,16.15
2023-03-07T06:21:50.817Z,14.77
2023-03-07T06:24:19.931Z,15.40
2023-03-07T06:26:47.899Z,12.35
2023-03-07T06:29:15.991Z,15.68
2023-03-07T06:31:43.601Z,14.48
2023-03-07T06:34:11.555Z,20.60
2023-03-07T06:36:40.281Z,19.73
2023-03-07T06:39:08.098Z,16.73
2023-03-07T06:41:36.701Z,17.63
2023-03-07T06:44:05.361Z,19.85
2023-03-07T06:46:34.179Z,24.20
2023-03-07T06:49:06.356Z,23.15
2023-03-07T06:51:37.452Z,22.60
2023-03-07T06:54:05.612Z,23.55
2023-03-07T06:56:34.344Z,21.13
2023-03-07T06:59:03.199Z,21.05
2023-03-07T07:01:31.139Z,23.35
2023-03-07T07:04:00.360Z,26.95
2023-03-07T07:06:28.964Z,21.40
2023-03-07T07:08:58.099Z,24.58
2023-03-07T07:11:29.560Z,21.48
2023-03-07T07:13:57.386Z,33.05
2023-03-07T07:16:25.129Z,26.90
2023-03-07T07:18:52.990Z,30.05
2023-03-07T07:21:20.684Z,24.67
2023-03-07T07:23:48.504Z,21.42
2023-03-07T07:26:16.049Z,29.27
2023-03-07T07:28:43.840Z,24.70
2023-03-07T07:31:11.007Z,28.75
2023-03-07T07:33:39.200Z,26.77
2023-03-07T07:36:08.149Z,27.58
2023-03-07T07:38:37.210Z,26.20
2023-03-07T07:41:04.694Z,24.10
2023-03-07T07:43:33.475Z,31.58
2023-03-07T07:46:23.975Z,37.00
2023-03-07T07:48:51.699Z,26.83
2023-03-07T07:51:19.848Z,34.20
2023-03-07T07:53:47.451Z,25.77
2023-03-07T07:56:15.371Z,24.80
2023-03-07T07:58:42.696Z,28.90
2023-03-07T08:01:18.261Z,36.80
2023-03-07T08:03:46.166Z,26.98
2023-03-07T08:06:19.833Z,26.52
2023-03-07T08:08:48.133Z,26.08
2023-03-07T08:11:16.394Z,33.17
2023-03-07T08:13:43.972Z,22.27
2023-03-07T08:16:14.989Z,22.88
2023-03-07T08:18:43.657Z,26.30
2023-03-07T08:21:10.960Z,21.48
2023-03-07T08:23:38.388Z,26.45
2023-03-07T08:26:08.796Z,22.77
2023-03-07T08:28:37.764Z,22.48
2023-03-07T08:31:15.067Z,20.80
2023-03-07T08:33:42.757Z,28.08
2023-03-07T08:36:10.293Z,28.23
2023-03-07T08:38:37.613Z,34.13
2023-03-07T08:41:06.816Z,27.15
2023-03-07T08:43:36.546Z,28.38
2023-03-07T08:46:04.662Z,22.95
2023-03-07T08:48:32.511Z,19.02
2023-03-07T08:51:08.424Z,17.83
2023-03-07T08:53:36.741Z,17.58
2023-03-07T08:56:08.024Z,17.30
2023-03-07T08:58:36.117Z,13.35
2023-03-07T09:01:05.085Z,16.95
2023-03-07T09:03:33.091Z,19.85
2023-03-07T09:06:00.861Z,23.73
2023-03-07T09:08:28.600Z,21.42
2023-03-07T09:10:56.913Z,19.90
2023-03-07T09:13:24.202Z,21.55
2023-03-07T09:15:51.934Z,27.25
2023-03-07T09:18:22.607Z,17.17
2023-03-07T09:20:50.292Z,22.95
2023-03-07T09:23:17.597Z,22.40
2023-03-07T09:25:44.886Z,11.27
2023-03-07T09:28:12.303Z,23.33
2023-03-07T09:30:40.045Z,19.92
2023-03-07T09:33:07.265Z,20.33
2023-03-07T09:35:34.549Z,19.20
2023-03-07T09:38:01.841Z,23.25
2023-03-07T09:40:29.699Z,18.98
2023-03-07T09:43:18.958Z,14.18
2023-03-07T09:46:13.248Z,26.65
2023-03-07T09:48:47.115Z,21.80
2023-03-07T09:51:34.557Z,23.73
2023-03-07T09:54:24.911Z,19.02
2023-03-07T09:56:55.994Z,12.18
2023-03-07T09:59:42.787Z,15.18
2023-03-07T10:02:39.358Z,18.80
2023-03-07T10:05:32.566Z,19.52
2023-03-07T10:08:01.704Z,11.63
2023-03-07T10:10:36.092Z,14.10
2023-03-07T10:13:10.379Z,23.02
2023-03-07T10:15:46.720Z,23.20
2023-03-07T10:18:42.178Z,18.20
2023-03-07T10:21:18.438Z,17.63
2023-03-07T10:24:11.428Z,13.47
2023-03-07T10:26:48.999Z,20.85
2023-03-07T10:29:25.254Z,15.63
2023-03-07T10:31:56.771Z,11.47
2023-03-07T10:34:32.512Z,22.80
2023-03-07T10:37:20.537Z,18.20
2023-03-07T10:39:52.575Z,12.52
2023-03-07T10:42:22.712Z,10.48
2023-03-07T10:44:51.786Z,14.70
2023-03-07T10:47:22.324Z,16.27
2023-03-07T10:49:56.280Z,11.20
2023-03-07T10:52:36.919Z,24.65
2023-03-07T10:55:42.544Z,16.38
2023-03-07T10:58:14.582Z,9.95
2023-03-07T11:00:44.368Z,7.65
2023-03-07T11:03:42.556Z,11.43
2023-03-07T11:06:35.647Z,15.00
2023-03-07T11:09:17.094Z,16.17
2023-03-07T11:12:10.038Z,6.53
2023-03-07T11:14:51.195Z,15.30
2023-03-07T11:17:24.234Z,19.77
2023-03-07T11:19:58.913Z,19.90
2023-03-07T11:22:34.268Z,25.52
2023-03-07T11:25:10.696Z,6.70
2023-03-07T11:27:46.782Z,7.07
2023-03-07T11:30:27.781Z,15.25
2023-03-07T11:33:02.855Z,10.85
2023-03-07T11:35:55.871Z,7.45
2023-03-07T11:38:26.110Z,9.38
2023-03-07T11:41:11.493Z,9.38
2023-03-07T11:43:50.163Z,5.97
2023-03-07T11:46:43.308Z,13.80
2023-03-07T11:49:43.446Z,11.63
2023-03-07T11:52:29.056Z,14.25
2023-03-07T11:55:01.796Z,6.90
2023-03-07T11:58:08.043Z,10.75
2023-03-07T12:01:06.344Z,6.25
2023-03-07T12:03:42.893Z,14.00
2023-03-07T12:06:13.019Z,14.77
2023-03-07T12:08:55.927Z,12.23
2023-03-07T12:11:53.686Z,6.88
2023-03-07T12:14:50.944Z,14.50
2023-03-07T12:17:18.658Z,10.50
2023-03-07T12:20:31.078Z,10.30
2023-03-07T12:23:08.134Z,19.02
2023-03-07T12:28:22.866Z,19.23
2023-03-07T12:31:11.413Z,11.48
2023-03-07T12:34:14.138Z,19.15
2023-03-07T12:36:47.800Z,13.90
2023-03-07T12:39:18.077Z,13.57
2023-03-07T12:41:57.694Z,14.65
2023-03-07T12:44:59.210Z,17.45
2023-03-07T12:47:45.125Z,20.98
2023-03-07T12:50:33.541Z,18.65
2023-03-07T12:53:01.257Z,14.30
2023-03-07T12:55:31.885Z,15.35
2023-03-07T12:58:17.698Z,14.07
2023-03-07T13:00:56.141Z,13.70
2023-03-07T13:03:50.851Z,16.55
2023-03-07T13:06:21.461Z,9.40
2023-03-07T13:08:55.447Z,16.52
2023-03-07T13:11:26.267Z,11.50
2023-03-07T13:13:55.426Z,13.23
2023-03-07T13:16:39.242Z,13.13
2023-03-07T13:19:35.064Z,12.50
2023-03-07T13:22:14.560Z,12.25
2023-03-07T13:24:46.359Z,9.90
2023-03-07T13:27:18.655Z,13.70
2023-03-07T13:30:07.625Z,21.55
2023-03-07T13:32:56.259Z,12.40
2023-03-07T13:35:35.675Z,10.63
2023-03-07T13:38:04.447Z,6.63
2023-03-07T13:40:47.100Z,6.32
2023-03-07T13:43:25.017Z,10.82
2023-03-07T13:45:56.862Z,4.82
2023-03-07T13:48:27.079Z,5.57
2023-03-07T13:50:54.326Z,13.43
2023-03-07T13:53:21.562Z,11.13
2023-03-07T13:56:00.416Z,7.68
2023-03-07T13:58:37.592Z,9.10
2023-03-07T14:03:38.540Z,10.20
2023-03-07T14:06:13.776Z,14.65
2023-03-07T14:08:42.176Z,10.52
2023-03-07T14:11:40.056Z,13.63
2023-03-07T14:14:15.827Z,10.35
2023-03-07T14:16:43.600Z,13.32
2023-03-07T14:19:49.563Z,7.65
2023-03-07T14:22:40.289Z,14.65
2023-03-07T14:25:25.070Z,16.83
2023-03-07T14:27:59.415Z,19.98
2023-03-07T14:30:32.429Z,12.32
2023-03-07T14:33:00.932Z,12.75
2023-03-07T14:35:39.971Z,8.40
2023-03-07T14:38:13.070Z,7.55
2023-03-07T14:41:15.403Z,8.73
2023-03-07T14:43:54.727Z,10.65
2023-03-07T14:46:27.820Z,9.73
2023-03-07T14:49:30.481Z,10.35
2023-03-07T14:51:58.432Z,11.85
2023-03-07T14:54:33.530Z,9.13
2023-03-07T14:57:01.786Z,13.77
2023-03-07T14:59:29.683Z,9.70
2023-03-07T15:01:57.660Z,12.00
2023-03-07T15:04:30.533Z,8.23
2023-03-07T15:07:04.537Z,6.05
2023-03-07T15:09:33.784Z,5.75
2023-03-07T15:12:03.194Z,7.35
2023-03-07T15:14:34.566Z,9.18
2023-03-07T15:17:06.850Z,4.63
2023-03-07T15:19:47.091Z,7.85
2023-03-07T15:22:25.054Z,9.35
2023-03-07T15:24:53.019Z,6.40
2023-03-07T15:27:30.802Z,7.13
2023-03-07T15:29:59.316Z,10.25
2023-03-07T15:32:41.217Z,10.75
2023-03-07T15:35:09.086Z,9.88
2023-03-07T15:38:06.561Z,12.55
2023-03-07T15:40:35.593Z,10.55
2023-03-07T15:43:04.419Z,5.88
2023-03-07T15:45:32.451Z,6.18
2023-03-07T15:48:14.666Z,6.95
2023-03-07T15:50:42.965Z,7.95
2023-03-07T15:53:27.599Z,9.20
2023-03-07T15:56:00.747Z,18.75
2023-03-07T15:58:29.099Z,12.75
2023-03-07T16:01:26.928Z,8.32
2023-03-07T16:04:00.464Z,8.48
2023-03-07T16:06:27.784Z,12.93
2023-03-07T16:08:55.097Z,13.95
2023-03-07T16:11:22.320Z,12.52
2023-03-07T16:13:50.786Z,8.20
2023-03-07T16:16:26.639Z,9.02
2023-03-07T16:18:54.712Z,10.20
2023-03-07T16:21:22.324Z,16.50
2023-03-07T16:23:50.968Z,14.93
2023-03-07T16:26:23.846Z,11.02
2023-03-07T16:28:52.864Z,12.88
2023-03-07T16:31:20.836Z,20.83
2023-03-07T16:33:48.703Z,20.20
2023-03-07T16:36:16.473Z,13.02
2023-03-07T16:38:44.569Z,17.92
2023-03-07T16:41:22.378Z,13.48
2023-03-07T16:43:55.339Z,15.82
2023-03-07T16:46:23.332Z,13.13
2023-03-07T16:48:51.064Z,18.60
2023-03-07T16:51:21.087Z,15.35
2023-03-07T16:53:50.152Z,21.40
2023-03-07T16:56:29.832Z,15.43
2023-03-07T16:58:58.335Z,12.55
2023-03-07T17:01:25.802Z,19.25
2023-03-07T17:03:56.341Z,18.80
2023-03-07T17:06:33.610Z,13.35
2023-03-07T17:09:07.234Z,20.35
2023-03-07T17:11:35.668Z,14.45
2023-03-07T17:14:06.005Z,12.90
2023-03-07T17:16:39.762Z,13.82
2023-03-07T17:19:24.963Z,15.95
2023-03-07T17:21:52.420Z,16.75
2023-03-07T17:24:20.251Z,22.30
2023-03-07T17:26:48.418Z,17.30
2023-03-07T17:29:41.982Z,27.70
2023-03-07T17:32:10.126Z,17.20
2023-03-07T17:34:38.040Z,17.85
2023-03-07T17:37:06.102Z,16.63
2023-03-07T17:39:34.848Z,22.13
2023-03-07T17:42:03.510Z,20.85
2023-03-07T17:44:31.860Z,18.02
2023-03-07T17:46:59.695Z,23.88
2023-03-07T17:49:33.262Z,29.10
2023-03-07T17:52:00.560Z,20.83
2023-03-07T17:54:27.893Z,20.63
2023-03-07T17:56:55.588Z,20.35
2023-03-07T17:59:23.414Z,20.05
2023-03-07T18:01:50.994Z,18.02
2023-03-07T18:04:18.169Z,15.05
2023-03-07T18:06:45.945Z,19.95
2023-03-07T18:09:15.288Z,22.10
2023-03-07T18:11:42.491Z,66.60
2023-03-07T18:14:11.208Z,20.98
2023-03-07T18:16:38.583Z,25.35
2023-03-07T18:19:08.297Z,25.90
2023-03-07T18:21:39.265Z,21.60
2023-03-07T18:24:20.064Z,23.67
2023-03-07T18:26:50.159Z,20.23
2023-03-07T18:29:17.917Z,25.85
2023-03-07T18:31:45.378Z,20.83
2023-03-07T18:34:12.872Z,17.83
2023-03-07T18:36:41.191Z,22.40
2023-03-07T18:39:13.462Z,18.92
2023-03-07T18:41:40.645Z,19.02
2023-03-07T18:44:08.287Z,23.00
2023-03-07T18:46:37.359Z,28.75
2023-03-07T18:49:04.840Z,21.77
2023-03-07T18:51:32.358Z,21.52
2023-03-07T18:54:01.392Z,22.63
2023-03-07T18:56:29.884Z,17.92
2023-03-07T18:59:01.046Z,17.60
2023-03-07T19:01:34.620Z,27.48
2023-03-07T19:04:03.556Z,22.92
2023-03-07T19:06:33.972Z,18.08
2023-03-07T19:09:03.466Z,21.88
2023-03-07T19:11:31.652Z,28.60
2023-03-07T19:13:59.505Z,26.10
2023-03-07T19:16:28.185Z,18.70
2023-03-07T19:18:56.517Z,35.47
2023-03-07T19:21:26.132Z,25.20
2023-03-07T19:23:54.827Z,28.48
2023-03-07T19:26:22.941Z,22.20
2023-03-07T19:28:52.491Z,32.55
2023-03-07T19:31:27.122Z,23.45
2023-03-07T19:33:55.149Z,30.88
2023-03-07T19:36:27.167Z,34.67
2023-03-07T19:38:57.757Z,27.58
2023-03-07T19:41:27.600Z,25.58
2023-03-07T19:43:59.401Z,30.98
2023-03-07T19:46:27.509Z,31.75
2023-03-07T19:48:55.312Z,33.90
2023-03-07T19:51:25.235Z,41.08
2023-03-07T19:53:56.828Z,30.60
2023-03-07T19:56:27.425Z,31.48
2023-03-07T19:58:55.609Z,28.27
2023-03-07T20:01:23.788Z,26.17
2023-03-07T20:03:51.700Z,31.15
2023-03-07T20:06:22.705Z,31.15
2023-03-07T20:08:51.827Z,34.15
2023-03-07T20:11:27.017Z,31.48
2023-03-07T20:13:56.888Z,23.02
2023-03-07T20:16:27.112Z,24.48
2023-03-07T20:18:55.985Z,29.50
2023-03-07T20:21:27.489Z,28.27
2023-03-07T20:23:59.110Z,23.65
2023-03-07T20:26:38.365Z,29.15
2023-03-07T20:29:07.301Z,31.55
2023-03-07T20:31:36.147Z,32.17
2023-03-07T20:34:03.812Z,26.27
2023-03-07T20:36:33.697Z,25.33
2023-03-07T20:39:03.757Z,30.90
2023-03-07T20:41:32.393Z,26.27
2023-03-07T20:44:03.410Z,32.67
2023-03-07T20:46:31.548Z,38.78
2023-03-07T20:49:00.709Z,50.08
2023-03-07T20:51:31.480Z,48.80
2023-03-07T20:54:16.685Z,55.47
2023-03-07T20:56:45.827Z,48.90
2023-03-07T20:59:15.679Z,39.58
2023-03-07T21:01:43.702Z,38.28
2023-03-07T21:04:13.460Z,38.90
2023-03-07T21:06:42.945Z,42.42
2023-03-07T21:09:12.067Z,38.88
2023-03-07T21:11:45.456Z,41.33
2023-03-07T21:14:14.661Z,38.33
2023-03-07T21:16:43.750Z,40.65
2023-03-07T21:19:11.785Z,38.17
2023-03-07T21:21:39.928Z,42.38
2023-03-07T21:24:07.798Z,43.80
2023-03-07T21:26:36.789Z,36.42
2023-03-07T21:29:05.067Z,43.92
2023-03-07T21:31:34.338Z,41.22
2023-03-07T21:34:04.675Z,39.80
2023-03-07T21:36:32.854Z,42.47
2023-03-07T21:39:01.062Z,44.33
2023-03-07T21:41:28.799Z,44.83
2023-03-07T21:43:57.029Z,36.83
2023-03-07T21:46:25.073Z,34.72
2023-03-07T21:48:53.109Z,36.58
2023-03-07T21:51:21.081Z,34.03
2023-03-07T21:53:48.794Z,36.72
2023-03-07T21:56:17.372Z,33.05
2023-03-07T21:58:48.743Z,30.83
2023-03-07T22:01:22.084Z,33.58
2023-03-07T22:03:55.939Z,35.70
2023-03-07T22:06:24.217Z,37.75
2023-03-07T22:08:51.960Z,39.33
2023-03-07T22:11:19.585Z,30.50
2023-03-07T22:13:47.291Z,41.97
2023-03-07T22:16:17.385Z,32.05
2023-03-07T22:18:45.258Z,34.58
2023-03-07T22:21:14.603Z,32.88
2023-03-07T22:23:42.497Z,35.65
2023-03-07T22:26:11.546Z,36.08
2023-03-07T22:28:40.555Z,43.13
2023-03-07T22:31:11.178Z,36.10
2023-03-07T22:33:39.207Z,31.58
2023-03-07T22:36:08.168Z,39.75
2023-03-07T22:38:36.291Z,41.15
2023-03-07T22:41:05.061Z,42.25
2023-03-07T22:43:33.500Z,43.00
2023-03-07T22:46:01.189Z,35.67
2023-03-07T22:48:29.263Z,38.88
2023-03-07T22:50:57.112Z,34.70
2023-03-07T22:53:27.099Z,42.95
2023-03-07T22:55:54.869Z,37.17
2023-03-07T22:58:22.664Z,37.00
2023-03-07T23:00:50.360Z,37.17
2023-03-07T23:03:18.134Z,39.70
2023-03-07T23:05:46.913Z,38.53
2023-03-07T23:08:14.479Z,39.75
2023-03-07T23:10:41.770Z,34.92
2023-03-07T23:13:09.047Z,44.97
2023-03-07T23:15:40.267Z,42.53
2023-03-07T23:18:07.981Z,45.15
2023-03-07T23:20:37.510Z,38.83
2023-03-07T23:23:04.989Z,42.25
2023-03-07T23:25:33.202Z,43.58
2023-03-07T23:28:00.721Z,42.47
2023-03-07T23:30:28.459Z,47.58
2023-03-07T23:32:55.714Z,47.88
2023-03-07T23:35:23.932Z,45.05
2023-03-07T23:37:51.266Z,52.08
2023-03-07T23:40:19.058Z,49.83
2023-03-07T23:42:46.802Z,48.63
2023-03-07T23:45:13.956Z,44.88
2023-03-07T23:47:41.223Z,56.78
2023-03-07T23:50:09.498Z,53.28
2023-03-07T23:52:36.768Z,52.38
2023-03-07T23:55:05.056Z,49.45
2023-03-07T23:57:32.277Z,48.65
2023-03-07T23:59:59.677Z,46.72
